Time;durP1;ratioP1;P1;durP2;ratioP2;P2;SDS_P1;SDS_P2;PMS_P1;PMS_P2;Temp;Humidity;BMP_temperature;BMP_pressure;BME280_temperature;BME280_humidity;BME280_pressure;Samples;Min_cycle;Max_cycle;Signal;HPM_P1;HPM_P2
2022/03/14 00:00:16;;;;;;;4.68;3.28;;;;;;;;;;4981962;28;97085;-74
2022/03/14 00:02:42;;;;;;;6.88;3.25;;;;;;;;;;4979478;28;97322;-75
2022/03/14 00:05:14;;;;;;;5.20;3.38;;;;;;;;;;5010236;28;96029;-75
2022/03/14 00:07:44;;;;;;;5.72;3.03;;;;;;;;;;5007648;28;96851;-74
2022/03/14 00:10:16;;;;;;;5.10;3.25;;;;;;;;;;4982387;28;95493;-74
2022/03/14 00:13:00;;;;;;;5.38;3.47;;;;;;;;;;4991071;28;95324;-74
2022/03/14 00:15:30;;;;;;;4.78;3.08;;;;;;;;;;4990943;28;97371;-74
2022/03/14 00:18:00;;;;;;;4.80;2.83;;;;;;;;;;4991111;28;95253;-75
2022/03/14 00:20:27;;;;;;;4.10;2.60;;;;;;;;;;4980524;28;96718;-75
2022/03/14 00:23:11;;;;;;;5.00;2.53;;;;;;;;;;4968822;28;95707;-75
2022/03/14 00:25:38;;;;;;;4.07;2.50;;;;;;;;;;4970791;28;95501;-75
2022/03/14 00:28:04;;;;;;;4.88;2.47;;;;;;;;;;4979871;28;96617;-74
2022/03/14 00:30:30;;;;;;;4.38;2.20;;;;;;;;;;4993479;28;97395;-75
2022/03/14 00:32:57;;;;;;;3.58;2.22;;;;;;;;;;4990760;28;96862;-76
2022/03/14 00:36:00;;;;;;;3.47;2.20;;;;;;;;;;5007013;28;95647;-75
2022/03/14 00:38:27;;;;;;;8.63;2.40;;;;;;;;;;4996772;28;95511;-74
2022/03/14 00:40:53;;;;;;;4.15;2.17;;;;;;;;;;4976660;28;96961;-75
2022/03/14 00:43:19;;;;;;;3.53;2.17;;;;;;;;;;4970460;28;97518;-75
2022/03/14 00:45:45;;;;;;;4.03;2.40;;;;;;;;;;4979356;28;95476;-75
2022/03/14 00:48:12;;;;;;;4.15;2.25;;;;;;;;;;4999002;28;96845;-74
2022/03/14 00:50:38;;;;;;;3.67;2.20;;;;;;;;;;4993491;28;97465;-74
2022/03/14 00:53:05;;;;;;;4.68;2.30;;;;;;;;;;4990746;28;96804;-73
2022/03/14 00:55:31;;;;;;;3.42;2.15;;;;;;;;;;4988854;28;97453;-75
2022/03/14 00:57:57;;;;;;;3.78;2.40;;;;;;;;;;4990423;28;95387;-75
2022/03/14 01:00:24;;;;;;;4.50;2.47;;;;;;;;;;4990405;28;96773;-75
2022/03/14 01:02:51;;;;;;;3.50;2.25;;;;;;;;;;4989906;28;97530;-75
2022/03/14 01:05:17;;;;;;;4.07;2.58;;;;;;;;;;4988541;28;95361;-74
2022/03/14 01:07:44;;;;;;;3.17;2.25;;;;;;;;;;4990116;28;96841;-74
2022/03/14 01:10:28;;;;;;;4.70;2.38;;;;;;;;;;4990510;28;95508;-75
2022/03/14 01:12:54;;;;;;;6.30;2.25;;;;;;;;;;4992945;28;95486;-74
2022/03/14 01:15:21;;;;;;;4.10;2.33;;;;;;;;;;4988621;28;96998;-74
2022/03/14 01:17:47;;;;;;;3.75;2.33;;;;;;;;;;4989791;28;95193;-74
2022/03/14 01:20:14;;;;;;;4.60;2.10;;;;;;;;;;4990178;28;96664;-75
2022/03/14 01:22:40;;;;;;;4.47;2.42;;;;;;;;;;4989198;28;97397;-74
2022/03/14 01:25:24;;;;;;;3.97;2.38;;;;;;;;;;4989758;28;95417;-75
2022/03/14 01:28:09;;;;;;;7.88;2.35;;;;;;;;;;4989120;28;96923;-74
2022/03/14 01:30:35;;;;;;;6.75;2.17;;;;;;;;;;4997264;28;97404;-74
2022/03/14 01:33:02;;;;;;;3.28;2.10;;;;;;;;;;4970317;28;95371;-75
2022/03/14 01:35:28;;;;;;;4.03;2.25;;;;;;;;;;4973741;28;96985;-74
2022/03/14 01:38:12;;;;;;;3.78;2.25;;;;;;;;;;4970412;28;95312;-74
2022/03/14 01:40:57;;;;;;;3.95;2.47;;;;;;;;;;4970531;28;97495;-74
2022/03/14 01:43:25;;;;;;;3.53;2.20;;;;;;;;;;4969753;28;97285;-74
2022/03/14 01:45:55;;;;;;;4.15;2.28;;;;;;;;;;4982417;28;95450;-74
2022/03/14 01:48:22;;;;;;;4.47;2.60;;;;;;;;;;4969653;28;97086;-74
2022/03/14 01:50:52;;;;;;;4.05;2.60;;;;;;;;;;4971526;28;97337;-74
2022/03/14 01:53:19;;;;;;;4.22;2.70;;;;;;;;;;4989442;28;96755;-74
2022/03/14 01:55:45;;;;;;;3.63;2.33;;;;;;;;;;4983431;28;97633;-75
2022/03/14 01:58:13;;;;;;;3.88;2.40;;;;;;;;;;4971692;28;97396;-75
2022/03/14 02:00:40;;;;;;;3.65;2.47;;;;;;;;;;4983678;28;97111;-75
2022/03/14 02:03:07;;;;;;;4.30;2.50;;;;;;;;;;5008503;28;97470;-74
2022/03/14 02:08:18;;;;;;;3.85;2.40;;;;;;;;;;5008767;28;96888;-74
2022/03/14 02:10:45;;;;;;;7.80;2.70;;;;;;;;;;4994509;28;97378;-75
2022/03/14 02:15:56;;;;;;;4.32;2.55;;;;;;;;;;4993621;28;96519;-74
2022/03/14 02:18:22;;;;;;;4.53;2.70;;;;;;;;;;4999469;28;97498;-74
2022/03/14 02:20:49;;;;;;;4.40;2.88;;;;;;;;;;4991053;28;95388;-73
2022/03/14 02:23:15;;;;;;;4.57;2.63;;;;;;;;;;4988294;28;97782;-73
2022/03/14 02:25:49;;;;;;;5.05;2.65;;;;;;;;;;4985434;28;95539;-74
2022/03/14 02:28:15;;;;;;;6.13;2.80;;;;;;;;;;4988136;28;96707;-75
2022/03/14 02:30:42;;;;;;;6.68;3.17;;;;;;;;;;4975963;28;97473;-75
2022/03/14 02:33:09;;;;;;;4.65;2.90;;;;;;;;;;4968398;28;95407;-74
2022/03/14 02:35:37;;;;;;;5.65;3.00;;;;;;;;;;5005959;28;96326;-74
2022/03/14 02:38:03;;;;;;;5.80;2.88;;;;;;;;;;5008766;28;97843;-74
2022/03/14 02:40:30;;;;;;;5.85;2.80;;;;;;;;;;4991117;28;95325;-74
2022/03/14 02:43:15;;;;;;;5.15;3.22;;;;;;;;;;4995424;28;96906;-73
2022/03/14 02:45:42;;;;;;;4.88;2.97;;;;;;;;;;4991696;28;95701;-74
2022/03/14 02:48:10;;;;;;;4.50;2.83;;;;;;;;;;4991315;28;96896;-74
2022/03/14 02:50:38;;;;;;;5.28;3.20;;;;;;;;;;4992772;28;96106;-74
2022/03/14 02:53:05;;;;;;;6.30;3.40;;;;;;;;;;4991056;28;95323;-72
2022/03/14 02:55:31;;;;;;;4.57;3.05;;;;;;;;;;4992308;28;97125;-75
2022/03/14 02:57:59;;;;;;;6.88;3.50;;;;;;;;;;4991586;28;96918;-75
2022/03/14 03:00:25;;;;;;;5.43;3.20;;;;;;;;;;4990857;28;95461;-74
2022/03/14 03:02:51;;;;;;;4.75;3.20;;;;;;;;;;4995396;28;97266;-74
2022/03/14 03:05:36;;;;;;;6.80;3.53;;;;;;;;;;4972627;28;95876;-74
2022/03/14 03:08:03;;;;;;;5.93;3.30;;;;;;;;;;4971365;28;96398;-74
2022/03/14 03:10:30;;;;;;;5.47;3.50;;;;;;;;;;4987184;28;97416;-74
2022/03/14 03:12:57;;;;;;;7.75;3.33;;;;;;;;;;4991125;28;95368;-74
2022/03/14 03:15:42;;;;;;;5.70;3.60;;;;;;;;;;4991228;28;96000;-74
2022/03/14 03:18:26;;;;;;;5.30;3.50;;;;;;;;;;4991806;28;95641;-75
2022/03/14 03:20:52;;;;;;;6.90;3.47;;;;;;;;;;4990872;28;95389;-73
2022/03/14 03:23:37;;;;;;;5.65;3.28;;;;;;;;;;4990904;28;96855;-74
2022/03/14 03:26:04;;;;;;;5.50;3.30;;;;;;;;;;4992653;28;97050;-75
2022/03/14 03:28:37;;;;;;;9.23;3.72;;;;;;;;;;4991039;28;97336;-74
2022/03/14 03:31:04;;;;;;;5.70;3.50;;;;;;;;;;4990573;28;97372;-74
2022/03/14 03:33:30;;;;;;;6.57;3.80;;;;;;;;;;4997665;28;95503;-74
2022/03/14 03:35:57;;;;;;;6.75;4.05;;;;;;;;;;4992119;28;96928;-74
2022/03/14 03:38:23;;;;;;;6.47;3.60;;;;;;;;;;4989813;28;97415;-75
2022/03/14 03:41:07;;;;;;;5.70;3.72;;;;;;;;;;4991474;28;95870;-74
2022/03/14 03:43:33;;;;;;;7.05;4.13;;;;;;;;;;4974451;28;97198;-74
2022/03/14 03:46:00;;;;;;;5.00;3.20;;;;;;;;;;4989878;28;97458;-74
2022/03/14 03:48:26;;;;;;;7.35;3.95;;;;;;;;;;5003324;28;95333;-75
2022/03/14 03:50:53;;;;;;;5.57;3.65;;;;;;;;;;5010624;28;97339;-74
2022/03/14 03:53:19;;;;;;;5.72;3.60;;;;;;;;;;5010983;28;96050;-75
2022/03/14 03:55:45;;;;;;;6.60;3.95;;;;;;;;;;4997022;28;96603;-74
2022/03/14 03:58:12;;;;;;;6.78;3.88;;;;;;;;;;4989970;28;97126;-74
2022/03/14 04:00:38;;;;;;;6.63;3.95;;;;;;;;;;4990838;28;95356;-74
2022/03/14 04:03:04;;;;;;;6.10;4.20;;;;;;;;;;4998707;28;96900;-74
2022/03/14 04:05:31;;;;;;;7.72;4.18;;;;;;;;;;4991050;28;96413;-74
2022/03/14 04:07:58;;;;;;;5.85;3.92;;;;;;;;;;4989380;28;95618;-74
2022/03/14 04:10:28;;;;;;;7.63;4.78;;;;;;;;;;4993723;28;96861;-74
2022/03/14 04:12:57;;;;;;;7.45;4.25;;;;;;;;;;4989369;28;96497;-73
2022/03/14 04:15:46;;;;;;;6.78;4.40;;;;;;;;;;4989690;28;95321;-73
2022/03/14 04:20:58;;;;;;;6.70;4.38;;;;;;;;;;4993591;28;95348;-74
2022/03/14 04:23:42;;;;;;;7.35;4.47;;;;;;;;;;4990923;28;95390;-75
2022/03/14 04:26:09;;;;;;;6.53;4.70;;;;;;;;;;4988045;28;97193;-74
2022/03/14 04:28:36;;;;;;;6.90;5.15;;;;;;;;;;4990110;28;95662;-73
2022/03/14 04:31:03;;;;;;;7.38;5.32;;;;;;;;;;4988856;28;97104;-74
2022/03/14 04:33:30;;;;;;;8.02;5.55;;;;;;;;;;4991181;28;97460;-73
2022/03/14 04:35:57;;;;;;;7.55;5.38;;;;;;;;;;4990499;28;96874;-74
2022/03/14 04:38:24;;;;;;;7.55;5.35;;;;;;;;;;4989869;28;97355;-75
2022/03/14 04:40:51;;;;;;;8.15;6.00;;;;;;;;;;4989833;28;95640;-75
2022/03/14 04:43:18;;;;;;;8.63;6.18;;;;;;;;;;4990414;28;96628;-75
2022/03/14 04:46:03;;;;;;;9.90;6.38;;;;;;;;;;4989297;28;97748;-75
2022/03/14 04:48:47;;;;;;;8.93;6.72;;;;;;;;;;4990082;28;95648;-74
2022/03/14 04:51:13;;;;;;;9.70;7.13;;;;;;;;;;4969856;28;96823;-74
2022/03/14 04:53:39;;;;;;;11.15;8.00;;;;;;;;;;4969863;28;96812;-75
2022/03/14 04:56:08;;;;;;;11.10;7.90;;;;;;;;;;4979208;28;96115;-73
2022/03/14 04:58:35;;;;;;;9.95;7.70;;;;;;;;;;4988703;28;97227;-75
2022/03/14 05:01:23;;;;;;;10.98;8.43;;;;;;;;;;4989242;28;96274;-75
2022/03/14 05:03:52;;;;;;;11.52;7.75;;;;;;;;;;4990085;28;97175;-74
2022/03/14 05:06:19;;;;;;;14.10;9.00;;;;;;;;;;4989582;28;97344;-74
2022/03/14 05:08:46;;;;;;;11.65;8.90;;;;;;;;;;4989545;28;95656;-75
2022/03/14 05:11:14;;;;;;;13.95;9.50;;;;;;;;;;4988773;28;96971;-76
2022/03/14 05:13:41;;;;;;;13.77;10.02;;;;;;;;;;4969443;28;97784;-74
2022/03/14 05:16:26;;;;;;;14.73;9.77;;;;;;;;;;4972352;28;95295;-75
2022/03/14 05:18:52;;;;;;;15.85;11.32;;;;;;;;;;4969361;28;97713;-75
2022/03/14 05:24:05;;;;;;;16.20;11.23;;;;;;;;;;4989242;28;96848;-73
2022/03/14 05:26:32;;;;;;;15.93;11.50;;;;;;;;;;4989073;28;97453;-76
2022/03/14 05:28:58;;;;;;;16.50;11.80;;;;;;;;;;4988317;28;95317;-74
2022/03/14 05:31:24;;;;;;;17.40;11.85;;;;;;;;;;4987831;28;96737;-75
2022/03/14 05:33:51;;;;;;;17.67;12.27;;;;;;;;;;4989117;28;97773;-75
2022/03/14 05:36:17;;;;;;;17.17;12.13;;;;;;;;;;4981768;28;95480;-75
2022/03/14 05:38:44;;;;;;;17.10;12.25;;;;;;;;;;4983596;28;97533;-75
2022/03/14 05:41:27;;;;;;;18.92;12.85;;;;;;;;;;4985453;28;95393;-74
2022/03/14 05:43:54;;;;;;;17.63;12.88;;;;;;;;;;4982404;28;96859;-74
2022/03/14 05:46:20;;;;;;;19.13;12.73;;;;;;;;;;4988582;28;97396;-76
2022/03/14 05:48:47;;;;;;;21.30;13.45;;;;;;;;;;4988858;28;95460;-75
2022/03/14 05:51:13;;;;;;;22.10;13.82;;;;;;;;;;4987148;28;96998;-74
2022/03/14 05:53:40;;;;;;;28.77;16.23;;;;;;;;;;4988972;28;97492;-74
2022/03/14 05:56:06;;;;;;;24.35;15.52;;;;;;;;;;4988343;28;95806;-75
2022/03/14 05:58:33;;;;;;;20.48;14.88;;;;;;;;;;4988631;28;96813;-75
2022/03/14 06:01:00;;;;;;;19.50;14.95;;;;;;;;;;4991963;28;97243;-74
2022/03/14 06:03:26;;;;;;;22.77;14.15;;;;;;;;;;5008804;28;96947;-75
2022/03/14 06:05:52;;;;;;;19.48;13.75;;;;;;;;;;5000093;28;97780;-75
2022/03/14 06:08:19;;;;;;;20.90;13.38;;;;;;;;;;4988191;28;95288;-75
2022/03/14 06:10:46;;;;;;;19.30;13.55;;;;;;;;;;4988452;28;96996;-73
2022/03/14 06:13:31;;;;;;;24.30;13.05;;;;;;;;;;4972699;28;97735;-74
2022/03/14 18:17:34;;;;;;;19.50;7.38;;;;;;;;;;5047775;27;95315;-74
2022/03/14 18:20:01;;;;;;;17.77;7.10;;;;;;;;;;5012444;27;97213;-73
2022/03/14 18:22:27;;;;;;;26.55;8.38;;;;;;;;;;5024494;28;95433;-73
2022/03/14 18:24:54;;;;;;;32.35;9.45;;;;;;;;;;5019476;27;97055;-73
2022/03/14 18:27:21;;;;;;;22.90;8.73;;;;;;;;;;5012309;28;97374;-73
2022/03/14 18:29:48;;;;;;;34.45;9.25;;;;;;;;;;5022133;27;95447;-75
2022/03/14 18:32:14;;;;;;;33.55;8.88;;;;;;;;;;5046103;27;96901;-75
2022/03/14 18:34:42;;;;;;;29.40;9.25;;;;;;;;;;5022680;28;97682;-75
2022/03/14 18:37:12;;;;;;;32.08;9.60;;;;;;;;;;5022837;27;95293;-74
2022/03/14 18:39:40;;;;;;;29.67;11.18;;;;;;;;;;5010910;28;97563;-74
2022/03/14 18:42:27;;;;;;;33.92;12.05;;;;;;;;;;5006602;28;96933;-74
2022/03/14 18:44:53;;;;;;;39.10;11.45;;;;;;;;;;5017766;28;96862;-74
2022/03/14 18:47:19;;;;;;;38.42;11.82;;;;;;;;;;5021026;27;97778;-73
2022/03/14 18:49:46;;;;;;;32.47;11.30;;;;;;;;;;5019080;28;97051;-73
2022/03/14 18:52:14;;;;;;;30.50;12.10;;;;;;;;;;5017780;28;96722;-74
2022/03/14 18:54:44;;;;;;;29.63;11.75;;;;;;;;;;5022020;28;97578;-74
2022/03/14 18:57:11;;;;;;;28.98;10.40;;;;;;;;;;5046045;27;95301;-74
2022/03/14 18:59:47;;;;;;;28.65;8.98;;;;;;;;;;5038512;27;96829;-74
2022/03/14 19:02:16;;;;;;;30.05;9.98;;;;;;;;;;5023754;27;96041;-74
2022/03/14 19:04:49;;;;;;;28.25;8.63;;;;;;;;;;5025039;27;96810;-75
2022/03/14 19:07:18;;;;;;;19.33;8.90;;;;;;;;;;5032246;27;97310;-75
2022/03/14 19:09:45;;;;;;;26.60;9.98;;;;;;;;;;5014371;28;95387;-75
2022/03/14 19:12:11;;;;;;;31.05;9.75;;;;;;;;;;5003520;27;96938;-74
2022/03/14 19:14:39;;;;;;;28.10;9.75;;;;;;;;;;5018678;27;97400;-74
2022/03/14 19:17:08;;;;;;;26.30;10.60;;;;;;;;;;5025589;27;95419;-74
2022/03/14 19:19:35;;;;;;;34.65;13.35;;;;;;;;;;5014056;28;96777;-74
2022/03/14 19:22:01;;;;;;;22.15;10.82;;;;;;;;;;5055226;27;97784;-74
2022/03/14 19:24:30;;;;;;;30.25;13.75;;;;;;;;;;5008692;28;97330;-74
2022/03/14 19:26:56;;;;;;;38.17;15.70;;;;;;;;;;5034093;27;97290;-75
2022/03/14 19:29:22;;;;;;;28.90;14.35;;;;;;;;;;5030859;27;95049;-75
2022/03/14 19:31:50;;;;;;;42.50;19.90;;;;;;;;;;5020668;28;98142;-75
2022/03/14 19:34:16;;;;;;;34.80;16.85;;;;;;;;;;5018947;28;97528;-73
2022/03/14 19:36:44;;;;;;;29.10;12.93;;;;;;;;;;5023795;28;96048;-72
2022/03/14 19:39:12;;;;;;;31.08;12.13;;;;;;;;;;5014063;28;96826;-75
2022/03/14 19:41:39;;;;;;;26.73;11.52;;;;;;;;;;5028096;28;97339;-74
2022/03/14 19:44:07;;;;;;;24.00;11.88;;;;;;;;;;5025489;28;95949;-74
2022/03/14 19:46:33;;;;;;;24.15;11.70;;;;;;;;;;5032374;27;97400;-73
2022/03/14 19:49:00;;;;;;;31.35;13.27;;;;;;;;;;5032147;28;95233;-74
2022/03/14 19:51:26;;;;;;;22.02;11.60;;;;;;;;;;5031830;27;97035;-74
2022/03/14 19:53:53;;;;;;;31.17;12.20;;;;;;;;;;5014786;28;97767;-74
2022/03/14 19:56:19;;;;;;;41.30;12.57;;;;;;;;;;4993669;28;95252;-74
2022/03/14 19:58:45;;;;;;;33.25;14.15;;;;;;;;;;5024876;28;96570;-73
2022/03/14 20:01:12;;;;;;;31.83;11.90;;;;;;;;;;5032624;27;97351;-74
2022/03/14 20:03:39;;;;;;;20.02;11.40;;;;;;;;;;5032081;28;95573;-74
2022/03/14 20:06:14;;;;;;;25.50;12.27;;;;;;;;;;5030704;27;96843;-75
2022/03/14 20:08:41;;;;;;;27.48;12.18;;;;;;;;;;5030650;28;95297;-74
2022/03/14 20:11:10;;;;;;;31.95;13.05;;;;;;;;;;5016550;28;96828;-74
2022/03/14 20:13:37;;;;;;;34.03;13.15;;;;;;;;;;5012597;28;97352;-74
2022/03/14 20:16:07;;;;;;;29.73;13.05;;;;;;;;;;5012290;28;95561;-74
2022/03/14 20:18:33;;;;;;;31.85;13.05;;;;;;;;;;5010759;27;96624;-74
2022/03/14 20:21:00;;;;;;;30.67;13.35;;;;;;;;;;5000876;28;96270;-74
2022/03/14 20:23:27;;;;;;;37.85;13.88;;;;;;;;;;5027204;28;96729;-75
2022/03/14 20:25:55;;;;;;;33.70;15.73;;;;;;;;;;5022740;28;98972;-74
2022/03/14 20:28:22;;;;;;;40.38;19.73;;;;;;;;;;5034455;28;95316;-74
2022/03/14 20:30:49;;;;;;;46.75;17.95;;;;;;;;;;5012048;28;97123;-74
2022/03/14 20:33:35;;;;;;;30.17;15.10;;;;;;;;;;5011661;28;98806;-74
2022/03/14 20:36:02;;;;;;;28.20;13.93;;;;;;;;;;5019729;27;95306;-74
2022/03/14 20:38:28;;;;;;;30.83;12.73;;;;;;;;;;5026731;27;97353;-73
2022/03/14 20:40:54;;;;;;;39.13;12.65;;;;;;;;;;5030797;27;97359;-73
2022/03/14 20:43:21;;;;;;;27.40;11.70;;;;;;;;;;5032050;28;95293;-73
2022/03/14 20:45:47;;;;;;;32.70;12.13;;;;;;;;;;5027111;27;96738;-75
2022/03/14 20:48:14;;;;;;;27.92;12.55;;;;;;;;;;4996893;28;97297;-72
2022/03/14 20:50:40;;;;;;;19.90;11.48;;;;;;;;;;5012043;28;96771;-75
2022/03/14 20:53:06;;;;;;;25.92;12.15;;;;;;;;;;5015701;28;97385;-73
2022/03/14 20:55:33;;;;;;;24.65;11.52;;;;;;;;;;5021145;27;95599;-74
2022/03/14 20:57:59;;;;;;;30.33;13.05;;;;;;;;;;5011321;28;97100;-73
2022/03/14 21:00:25;;;;;;;29.20;11.88;;;;;;;;;;5018209;28;97913;-75
2022/03/14 21:03:04;;;;;;;30.90;13.35;;;;;;;;;;5012216;28;96206;-75
2022/03/14 21:05:34;;;;;;;31.58;12.90;;;;;;;;;;5029882;28;96353;-76
2022/03/14 21:08:01;;;;;;;25.42;12.05;;;;;;;;;;5018356;28;97963;-75
2022/03/14 21:10:28;;;;;;;32.53;12.60;;;;;;;;;;5033296;28;96104;-75
2022/03/14 21:12:55;;;;;;;27.35;12.93;;;;;;;;;;5027596;28;98967;-75
2022/03/14 21:15:22;;;;;;;25.83;12.55;;;;;;;;;;5018699;27;95475;-74
2022/03/14 21:17:55;;;;;;;32.25;12.95;;;;;;;;;;5017493;27;96908;-74
2022/03/14 21:20:23;;;;;;;35.75;13.27;;;;;;;;;;5014136;28;97363;-73
2022/03/14 21:22:49;;;;;;;27.95;12.48;;;;;;;;;;5011763;28;95424;-74
2022/03/14 21:25:20;;;;;;;32.22;12.52;;;;;;;;;;5019735;27;96770;-74
2022/03/14 21:27:46;;;;;;;32.17;13.85;;;;;;;;;;5011179;28;97401;-73
2022/03/14 21:30:13;;;;;;;30.60;12.43;;;;;;;;;;5011692;28;95475;-73
2022/03/14 21:32:44;;;;;;;29.40;13.45;;;;;;;;;;5016945;28;97285;-74
2022/03/14 21:35:12;;;;;;;24.45;12.35;;;;;;;;;;5028762;27;95193;-73
2022/03/14 21:37:42;;;;;;;25.88;12.82;;;;;;;;;;5017115;28;96762;-75
2022/03/14 21:40:10;;;;;;;31.55;13.30;;;;;;;;;;5030128;28;97676;-74
2022/03/14 21:42:37;;;;;;;29.73;12.00;;;;;;;;;;5025619;28;95248;-75
2022/03/14 21:45:05;;;;;;;25.38;11.73;;;;;;;;;;5019741;28;96728;-75
2022/03/14 21:47:32;;;;;;;28.08;12.65;;;;;;;;;;5032328;28;97433;-75
2022/03/14 21:49:59;;;;;;;41.90;13.60;;;;;;;;;;5030848;27;95628;-75
2022/03/14 21:52:26;;;;;;;25.33;12.93;;;;;;;;;;5027656;27;96774;-74
2022/03/14 21:54:53;;;;;;;33.20;14.93;;;;;;;;;;5014621;28;97397;-75
2022/03/14 21:57:19;;;;;;;30.40;14.82;;;;;;;;;;5011745;28;97317;-74
2022/03/14 21:59:47;;;;;;;29.67;14.43;;;;;;;;;;5012095;28;97534;-75
2022/03/14 22:02:13;;;;;;;28.83;14.18;;;;;;;;;;5012198;28;95533;-75
2022/03/14 22:04:44;;;;;;;37.88;15.50;;;;;;;;;;5023908;28;97198;-75
2022/03/14 22:07:10;;;;;;;28.90;14.90;;;;;;;;;;5031728;28;97315;-72
2022/03/14 22:09:38;;;;;;;39.95;15.93;;;;;;;;;;5031671;28;95208;-72
2022/03/14 22:12:05;;;;;;;29.30;14.85;;;;;;;;;;5032191;27;96795;-73
2022/03/14 22:14:32;;;;;;;33.05;14.57;;;;;;;;;;5003115;28;97954;-73
2022/03/14 22:17:00;;;;;;;34.67;15.13;;;;;;;;;;5014288;28;95217;-72
2022/03/14 22:19:27;;;;;;;36.75;14.90;;;;;;;;;;5011777;28;98021;-73
2022/03/14 22:21:53;;;;;;;37.83;16.48;;;;;;;;;;5012265;28;95340;-73
2022/03/14 22:24:20;;;;;;;32.63;15.63;;;;;;;;;;5018795;28;96802;-73
2022/03/14 22:26:46;;;;;;;32.08;14.25;;;;;;;;;;5032118;28;97027;-73
2022/03/14 22:29:13;;;;;;;26.63;14.98;;;;;;;;;;5032193;27;96268;-73
2022/03/14 22:31:39;;;;;;;28.67;13.45;;;;;;;;;;5031758;28;96842;-73
2022/03/14 22:34:06;;;;;;;31.50;13.75;;;;;;;;;;5028732;27;97484;-73
2022/03/14 22:36:39;;;;;;;29.02;13.18;;;;;;;;;;5035245;28;95374;-77
2022/03/14 22:39:06;;;;;;;28.17;11.55;;;;;;;;;;5031121;28;97466;-74
2022/03/14 22:41:38;;;;;;;22.30;10.48;;;;;;;;;;5032154;28;95316;-73
2022/03/14 22:44:05;;;;;;;21.37;10.80;;;;;;;;;;5030132;28;97199;-74
2022/03/14 22:46:32;;;;;;;20.92;10.50;;;;;;;;;;5011022;28;97913;-74
2022/03/14 22:48:59;;;;;;;25.15;11.20;;;;;;;;;;5011681;28;95666;-74
2022/03/14 22:51:28;;;;;;;32.08;12.10;;;;;;;;;;5011716;28;96832;-74
2022/03/14 22:53:59;;;;;;;27.00;11.73;;;;;;;;;;5028739;28;97135;-73
2022/03/14 22:56:29;;;;;;;21.35;11.18;;;;;;;;;;5015700;28;95313;-73
2022/03/14 22:58:56;;;;;;;19.30;9.52;;;;;;;;;;5014163;28;96716;-73
2022/03/14 23:01:22;;;;;;;26.23;12.10;;;;;;;;;;5011603;28;95464;-73
2022/03/14 23:06:35;;;;;;;31.88;12.40;;;;;;;;;;5034463;28;97265;-73
2022/03/14 23:09:02;;;;;;;34.08;12.57;;;;;;;;;;5034084;27;95459;-73
2022/03/14 23:11:29;;;;;;;23.48;11.20;;;;;;;;;;5017961;28;96823;-74
2022/03/14 23:13:56;;;;;;;24.05;11.38;;;;;;;;;;5014563;28;97410;-76
2022/03/14 23:16:36;;;;;;;20.88;11.57;;;;;;;;;;5013347;28;95604;-75
2022/03/14 23:19:05;;;;;;;20.13;11.32;;;;;;;;;;5013935;28;96821;-75
2022/03/14 23:21:33;;;;;;;24.15;11.23;;;;;;;;;;5016879;28;97739;-75
2022/03/14 23:24:00;;;;;;;22.52;10.55;;;;;;;;;;5011225;28;96446;-74
2022/03/14 23:26:28;;;;;;;23.30;11.13;;;;;;;;;;5020281;27;97361;-74
2022/03/14 23:28:55;;;;;;;25.67;11.77;;;;;;;;;;5014172;28;95559;-74
2022/03/14 23:31:25;;;;;;;26.02;10.75;;;;;;;;;;5025245;28;97189;-75
2022/03/14 23:33:52;;;;;;;29.52;12.38;;;;;;;;;;5034511;27;96945;-75
2022/03/14 23:36:19;;;;;;;29.73;12.32;;;;;;;;;;5034149;27;95190;-75
2022/03/14 23:38:48;;;;;;;24.10;10.80;;;;;;;;;;5033882;28;97183;-75
2022/03/14 23:41:15;;;;;;;19.15;10.50;;;;;;;;;;5024122;27;97415;-75
2022/03/14 23:43:41;;;;;;;28.90;10.75;;;;;;;;;;5017749;28;95232;-75
2022/03/14 23:46:08;;;;;;;22.83;10.52;;;;;;;;;;4995814;28;97341;-75
2022/03/14 23:48:34;;;;;;;21.73;10.30;;;;;;;;;;4996433;28;95233;-75
2022/03/14 23:51:01;;;;;;;21.33;10.93;;;;;;;;;;5014984;28;97204;-73
2022/03/14 23:53:28;;;;;;;31.73;12.05;;;;;;;;;;5014056;28;97659;-75
2022/03/14 23:55:54;;;;;;;25.70;11.55;;;;;;;;;;5013847;28;95370;-75
2022/03/14 23:58:20;;;;;;;23.20;11.52;;;;;;;;;;5014137;28;96756;-75
